Weather observations for the past three days for
Dayton, Cox Dayton International Airport
Imperial (Metric)
Date Time (edt) Wind (mph) Vis. (mi.) Weather Sky Cond. Temperature (ºF) Relative Humidity Wind Chill (°F) Heat Index (°F) Pressure Precipitation (in)
Air Dwpt 6 hour altimeter (in) sea level (mb) 1 hr 3 hr 6 hr
Max. Min.
09 07:56 W 7 10.00 Mostly Cloudy SCT006 SCT030 BKN120 54 52 54 53.1 93% 29.78 1008.1 0.25
09 06:56 SW 10 10.00 Light Rain FEW031 OVC070 53.1 52 96% 29.75 1007.3 0.03
09 05:56 SW 10 10.00 Light Rain FEW040 BKN050 OVC080 53.1 51.1 93% 29.77 1007.7 0.01
09 04:56 SW 12 8.00 Light Rain BKN060 OVC070 53.1 51.1 93% 29.77 1008.0 0.09 0.21
09 03:56 W 16 10.00 Light Rain OVC065 54 51.1 90% 29.78 1008.3 0.06
09 02:56 SW 14 8.00 Light Rain OVC060 54 52 93% 29.8 1008.8 0.06
09 01:56 SW 8 7.00 Light Rain OVC065 54 52 57.9 54 93% 29.81 1009.3 0.06 0.25
09 00:56 W 13 9.00 Light Rain OVC060 54 52 93% 29.83 1009.7 0.06
08 23:56 W 13 9.00 Light Rain OVC065 54 51.1 90% 29.83 1010.0 0.05
08 22:56 W 10 6.00 Rain Fog/Mist OVC060 54 51.1 90% 29.86 1010.9 0.05 0.08
08 21:56 W 6 7.00 Light Rain OVC060 54 51.1 90% 29.85 1010.5 0.03
08 20:56 NW 3 10.00 Light Rain BKN065 OVC075 55 50 83% 29.84 1010.4
08 19:56 W 9 10.00 Light Rain BKN065 OVC080 57.9 48 66.9 57.9 70% 29.83 1010.2
08 18:56 S 6 10.00 Overcast BKN080 OVC095 61 44.1 54% 29.82 1009.7
08 17:56 SW 7 10.00 Light Rain FEW060 SCT080 OVC095 61 44.1 54% 29.82 1009.6
08 16:56 W 12 10.00 Overcast FEW055 OVC095 63 42.1 47% 29.83 1010.0
08 15:56 SW 20 G 29 10.00 Overcast FEW055 OVC090 64 39.9 41% 29.85 1010.6
08 14:56 SW 21 G 31 10.00 Mostly Cloudy and Breezy BKN090 BKN110 66 41 40% 29.86 1011.0
08 13:56 SW 20 10.00 Overcast SCT060 OVC095 63 41 66.9 48.9 45% 29.88 1011.9
08 12:56 W 15 G 23 10.00 Mostly Cloudy FEW055 BKN090 64.9 42.1 43% 29.91 1012.7
08 11:56 SW 16 G 26 10.00 Mostly Cloudy BKN090 BKN110 63 41 45% 29.93 1013.2
08 10:56 W 20 G 26 10.00 Mostly Cloudy FEW045 BKN095 BKN150 60.1 39.9 48% 29.94 1013.8
08 09:56 W 14 10.00 Mostly Cloudy FEW065 SCT100 BKN120 59 37.9 46% 29.95 1014.2
08 08:56 W 9 10.00 Mostly Cloudy SCT065 BKN130 53.1 37.9 57% 29.95 1014.2
08 07:56 SW 8 10.00 Mostly Cloudy BKN120 48.9 37 48.9 46 64% 46 29.95 1014.2
08 06:56 SW 10 10.00 Mostly Cloudy BKN110 46.9 36 66% 43 29.93 1013.7
08 05:56 SW 10 10.00 Mostly Cloudy BKN120 46.9 35.1 63% 43 29.93 1013.4
08 04:56 SW 10 10.00 A Few Clouds FEW085 46 34 63% 42 29.93 1013.7
08 03:56 SW 12 10.00 A Few Clouds FEW085 46.9 34 61% 42 29.93 1013.7
08 02:56 SW 10 10.00 Partly Cloudy FEW065 SCT085 48 34 58% 44 29.94 1013.9
08 01:56 SW 12 10.00 Partly Cloudy FEW080 SCT095 48 33.1 53.1 48 56% 44 29.94 1014.1
08 00:56 SW 10 10.00 Mostly Cloudy SCT080 BKN100 50 33.1 52% 46 29.95 1014.3
07 23:56 SW 6 10.00 Mostly Cloudy SCT080 BKN100 51.1 33.1 50% 29.95 1014.2
07 22:56 SW 7 10.00 Mostly Cloudy SCT075 BKN100 51.1 35.1 54% 29.95 1014.4
07 21:56 SW 7 10.00 Mostly Cloudy SCT075 BKN090 BKN110 52 32 47% 29.94 1014.0
07 20:56 SW 7 10.00 Mostly Cloudy SCT070 BKN080 BKN110 52 32 47% 29.94 1014.0
07 19:56 W 7 10.00 A Few Clouds FEW070 FEW085 53.1 33.1 59 53.1 47% 29.93 1013.9
07 18:56 NW 8 10.00 Partly Cloudy SCT070 SCT080 57 28.9 34% 29.94 1013.9
07 17:56 NW 10 10.00 Partly Cloudy SCT070 SCT080 57.9 30 35% 29.94 1014.1
07 16:56 NW 15 10.00 Partly Cloudy SCT070 57.9 30.9 36% 29.95 1014.2
07 15:56 NW 12 G 21 10.00 Partly Cloudy SCT060 57 30.9 37% 29.94 1014.1
07 14:56 NW 15 G 23 10.00 Partly Cloudy SCT060 57 30.9 37% 29.96 1014.6
07 13:56 N 14 G 25 10.00 Partly Cloudy SCT055 SCT250 55.9 32 55.9 43 40% 29.97 1015.0
07 12:56 W 17 G 25 10.00 A Few Clouds FEW250 54 30 40% 29.98 1015.6
07 11:56 NW 15 10.00 A Few Clouds FEW250 52 28.9 41% 29.99 1015.9
07 10:56 NW 15 G 20 10.00 A Few Clouds FEW170 FEW250 51.1 30 45% 29.99 1015.6
07 09:56 NW 10 10.00 Partly Cloudy SCT170 SCT250 48.9 28.9 46% 45 29.99 1015.7
07 08:56 NW 8 10.00 Partly Cloudy FEW060 SCT170 46.9 30.9 54% 44 29.99 1015.7
07 07:56 W 8 10.00 A Few Clouds FEW060 FEW200 43 33.1 45 39.9 68% 39 29.98 1015.6
07 06:56 NW 8 10.00 A Few Clouds FEW200 39.9 32 73% 35 29.98 1015.4
07 05:56 NW 7 10.00 A Few Clouds FEW250 41 33.1 73% 37 29.97 1015.1
07 04:56 W 7 10.00 Fair CLR 41 34 76% 37 29.96 1014.9
07 03:56 W 7 10.00 Fair CLR 43 34 71% 39 29.96 1014.7
07 02:56 W 7 10.00 A Few Clouds FEW060 44.1 35.1 71% 41 29.96 1014.5
07 01:56 W 6 10.00 A Few Clouds FEW065 42.1 36 54 39.9 79% 39 29.96 1014.9
07 00:56 W 6 10.00 A Few Clouds FEW065 43 37 80% 40 29.97 1015.1
06 23:56 SW 5 10.00 A Few Clouds FEW065 42.1 36 79% 40 29.97 1015.0
06 22:56 Calm 10.00 Partly Cloudy SCT065 48.9 35.1 59% 29.97 1015.0
06 21:56 Calm 10.00 Partly Cloudy SCT080 48.9 35.1 59% 29.96 1014.8
06 20:56 NW 5 10.00 Mostly Cloudy BKN080 51.1 34 52% 29.95 1014.5
06 19:56 NW 8 10.00 Mostly Cloudy FEW050 BKN080 BKN095 54 35.1 55.9 54 49% 29.94 1013.9
06 18:56 NW 7 10.00 Overcast FEW050 OVC085 55 35.1 47% 29.94 1013.8
06 17:56 NW 7 10.00 Overcast FEW049 OVC085 55 35.1 47% 29.94 1014.1
06 16:56 NW 6 10.00 Overcast FEW046 OVC085 54 35.1 49% 29.93 1013.7
06 15:56 NW 7 10.00 Overcast FEW044 OVC080 55 35.1 47% 29.93 1013.6
06 14:56 NW 7 10.00 Overcast SCT044 OVC080 55 37 51% 29.93 1013.6
06 13:56 N 9 10.00 Overcast FEW044 OVC090 55 36 55.9 44.1 49% 29.93 1013.6
06 12:56 N 9 10.00 Mostly Cloudy FEW045 BKN100 55 37 51% 29.93 1013.6
06 11:56 N 10 10.00 Mostly Cloudy SCT045 BKN100 53.1 37 55% 29.93 1013.5
06 10:56 N 7 10.00 Mostly Cloudy BKN060 51.1 37.9 61% 29.91 1012.8
06 09:56 N 8 10.00 Mostly Cloudy BKN055 48 39 71% 45 29.9 1012.7
06 08:56 NW 7 10.00 Overcast OVC050 46 41 83% 43 29.89 1012.3
Date Time (edt) Wind (mph) Vis. (mi.) Weather Sky Cond. Air Dwpt Max. Min. Relative Humidity Wind Chill (°F) Heat Index (°F) altimeter (in) sea level (mb) 1 hr 3 hr 6 hr
6 hour
Temperature (ºF) Pressure Precipitation (in)